createdAt,value
2018-12-27T00:02:05.001Z,62.50
2018-12-27T00:05:07.003Z,62.57
2018-12-27T00:08:08.961Z,62.56
2018-12-27T00:11:10.877Z,62.62
2018-12-27T00:14:12.862Z,62.59
2018-12-27T00:17:14.800Z,62.83
2018-12-27T00:20:16.729Z,62.91
2018-12-27T00:23:18.664Z,62.91
2018-12-27T00:26:20.683Z,62.79
2018-12-27T00:29:22.624Z,62.86
2018-12-27T00:32:24.601Z,62.85
2018-12-27T00:35:26.589Z,62.88
2018-12-27T00:38:28.813Z,63.08
2018-12-27T00:41:30.782Z,63.34
2018-12-27T00:44:32.740Z,63.37
2018-12-27T00:47:34.767Z,63.19
2018-12-27T00:50:36.755Z,63.21
2018-12-27T00:53:38.696Z,63.17
2018-12-27T00:56:40.646Z,63.27
2018-12-27T00:59:42.721Z,63.36
2018-12-27T01:02:44.644Z,63.55
2018-12-27T01:05:46.739Z,63.66
2018-12-27T01:08:48.702Z,63.89
2018-12-27T01:11:50.643Z,64.02
2018-12-27T01:14:52.636Z,64.10
2018-12-27T01:17:54.583Z,64.14
2018-12-27T01:20:56.544Z,64.13
2018-12-27T01:23:58.515Z,64.00
2018-12-27T01:27:00.517Z,64.08
2018-12-27T01:30:02.554Z,64.07
2018-12-27T01:33:05.781Z,64.15
2018-12-27T01:36:07.719Z,64.13
2018-12-27T01:39:09.870Z,64.22
2018-12-27T01:42:11.759Z,64.13
2018-12-27T01:45:13.690Z,64.11
2018-12-27T01:48:15.696Z,63.89
2018-12-27T01:51:17.603Z,63.81
2018-12-27T01:54:19.534Z,63.89
2018-12-27T01:57:21.459Z,63.96
2018-12-27T02:00:23.487Z,63.92
2018-12-27T02:03:26.634Z,63.89
2018-12-27T02:06:28.848Z,63.92
2018-12-27T02:09:30.813Z,63.95
2018-12-27T02:12:32.751Z,63.92
2018-12-27T02:15:34.703Z,63.91
2018-12-27T02:18:36.723Z,63.96
2018-12-27T02:21:38.636Z,63.93
2018-12-27T02:24:40.584Z,63.85
2018-12-27T02:27:42.565Z,63.82
2018-12-27T02:30:44.493Z,63.95
2018-12-27T02:33:46.405Z,63.90
2018-12-27T02:36:48.350Z,64.23
2018-12-27T02:39:50.540Z,64.39
2018-12-27T02:42:52.839Z,64.44
2018-12-27T02:45:54.789Z,64.29
2018-12-27T02:48:56.869Z,64.31
2018-12-27T02:51:58.772Z,64.17
2018-12-27T02:55:00.842Z,64.14
2018-12-27T02:58:02.791Z,64.35
2018-12-27T03:01:04.931Z,64.38
2018-12-27T03:04:07.839Z,64.31
2018-12-27T03:07:09.879Z,64.39
2018-12-27T03:10:11.866Z,64.39
2018-12-27T03:13:13.859Z,64.45
2018-12-27T03:16:15.805Z,64.37
2018-12-27T03:19:17.919Z,64.24
2018-12-27T03:22:19.990Z,64.12
2018-12-27T03:25:21.923Z,64.07
2018-12-27T03:28:23.900Z,64.10
2018-12-27T03:31:25.820Z,64.13
2018-12-27T03:34:27.786Z,64.05
2018-12-27T03:37:30.896Z,63.96
2018-12-27T03:40:33.240Z,63.98
2018-12-27T03:43:35.243Z,64.04
2018-12-27T03:46:37.196Z,64.14
2018-12-27T03:49:39.216Z,64.14
2018-12-27T03:52:41.109Z,64.10
2018-12-27T03:55:43.162Z,63.94
2018-12-27T03:58:45.200Z,63.89
2018-12-27T04:01:47.222Z,63.96
2018-12-27T04:04:50.282Z,63.96
2018-12-27T04:07:52.338Z,63.88
2018-12-27T04:10:54.284Z,63.74
2018-12-27T04:13:56.275Z,63.71
2018-12-27T04:16:58.192Z,63.70
2018-12-27T04:20:00.261Z,63.64
2018-12-27T04:23:02.172Z,63.84
2018-12-27T04:26:04.332Z,63.98
2018-12-27T04:29:06.365Z,63.95
2018-12-27T04:32:08.571Z,64.19
2018-12-27T04:35:10.968Z,64.29
2018-12-27T04:38:13.006Z,64.36
2018-12-27T04:41:14.977Z,64.32
2018-12-27T04:44:17.155Z,64.47
2018-12-27T04:47:19.246Z,64.52
2018-12-27T04:50:21.222Z,64.48
2018-12-27T04:53:23.171Z,64.49
2018-12-27T04:56:25.143Z,64.56
2018-12-27T04:59:27.112Z,64.68
2018-12-27T05:02:29.159Z,64.81
2018-12-27T05:05:31.118Z,64.80
2018-12-27T05:08:33.212Z,64.83
2018-12-27T05:11:35.210Z,64.79
2018-12-27T05:14:37.182Z,64.73
2018-12-27T05:17:39.151Z,64.72
2018-12-27T05:20:41.133Z,64.70
2018-12-27T05:23:44.215Z,64.60
2018-12-27T05:26:46.133Z,64.44
2018-12-27T05:29:48.082Z,64.44
2018-12-27T05:32:50.034Z,64.37
2018-12-27T05:35:52.981Z,64.43
2018-12-27T05:38:54.966Z,64.37
2018-12-27T05:41:56.890Z,64.35
2018-12-27T05:44:58.945Z,64.45
2018-12-27T05:48:00.886Z,64.46
2018-12-27T05:51:02.919Z,64.33
2018-12-27T05:54:04.882Z,64.24
2018-12-27T05:57:06.823Z,64.31
2018-12-27T06:00:08.792Z,64.39
2018-12-27T06:03:10.846Z,64.47
2018-12-27T06:06:12.790Z,64.47
2018-12-27T06:09:14.940Z,64.30
2018-12-27T06:12:16.931Z,64.22
2018-12-27T06:15:18.955Z,64.06
2018-12-27T06:18:20.925Z,64.05
2018-12-27T06:21:22.958Z,64.12
2018-12-27T06:24:25.546Z,64.02
2018-12-27T06:27:27.539Z,64.03
2018-12-27T06:30:29.483Z,63.97
2018-12-27T06:33:31.441Z,64.03
2018-12-27T06:36:33.391Z,64.00
2018-12-27T06:39:35.486Z,64.08
2018-12-27T06:42:37.434Z,64.10
2018-12-27T06:45:39.513Z,63.99
2018-12-27T06:48:41.459Z,64.01
2018-12-27T06:51:43.393Z,63.96
2018-12-27T06:54:45.346Z,63.90
2018-12-27T06:57:47.351Z,63.99
2018-12-27T07:00:49.296Z,64.09
2018-12-27T07:03:51.337Z,64.22
2018-12-27T07:06:53.286Z,64.08
2018-12-27T07:09:55.379Z,64.09
2018-12-27T07:12:57.396Z,64.13
2018-12-27T07:15:59.499Z,64.30
2018-12-27T07:19:01.763Z,64.33
2018-12-27T07:22:03.809Z,64.24
2018-12-27T07:25:05.935Z,64.22
2018-12-27T07:28:08.130Z,64.01
2018-12-27T07:31:10.197Z,63.99
2018-12-27T07:34:12.520Z,63.83
2018-12-27T07:37:14.587Z,63.73
2018-12-27T07:40:16.739Z,63.80
2018-12-27T07:43:18.692Z,63.68
2018-12-27T07:46:20.784Z,63.41
2018-12-27T07:49:22.769Z,63.34
2018-12-27T07:52:24.817Z,63.33
2018-12-27T07:55:26.827Z,63.27
2018-12-27T07:58:28.876Z,63.22
2018-12-27T08:01:31.236Z,63.14
2018-12-27T08:04:33.246Z,62.95
2018-12-27T08:07:35.248Z,62.70
2018-12-27T08:10:37.220Z,62.39
2018-12-27T08:13:39.303Z,62.23
2018-12-27T08:16:41.352Z,62.22
2018-12-27T08:19:43.318Z,62.06
2018-12-27T08:22:45.257Z,62.05
2018-12-27T08:25:47.312Z,61.88
2018-12-27T08:28:49.265Z,61.77
2018-12-27T08:31:51.188Z,61.69
2018-12-27T08:34:53.220Z,61.58
2018-12-27T08:37:55.077Z,61.39
2018-12-27T08:40:57.138Z,61.33
2018-12-27T08:43:59.212Z,61.35
2018-12-27T08:47:01.309Z,61.31
2018-12-27T08:50:05.611Z,61.18
2018-12-27T08:53:07.643Z,61.04
2018-12-27T08:56:09.635Z,60.90
2018-12-27T08:59:11.665Z,61.06
2018-12-27T09:02:13.781Z,61.03
2018-12-27T09:05:19.074Z,61.01
2018-12-27T09:08:19.633Z,60.84
2018-12-27T09:11:21.489Z,60.85
2018-12-27T09:14:24.592Z,60.73
2018-12-27T09:17:27.645Z,60.72
2018-12-27T09:20:29.643Z,60.61
2018-12-27T09:23:31.701Z,60.48
2018-12-27T09:26:33.762Z,60.29
2018-12-27T09:29:35.812Z,60.13
2018-12-27T09:32:37.850Z,60.10
2018-12-27T09:35:39.810Z,60.04
2018-12-27T09:38:41.816Z,59.93
2018-12-27T09:41:43.705Z,59.98
2018-12-27T09:44:45.727Z,59.96
2018-12-27T09:47:47.686Z,59.86
2018-12-27T09:50:49.653Z,59.92
2018-12-27T09:53:52.091Z,59.95
2018-12-27T09:56:54.069Z,59.74
2018-12-27T09:59:56.062Z,59.61
2018-12-27T10:02:58.032Z,59.46
2018-12-27T10:06:00.222Z,59.29
2018-12-27T10:13:31.905Z,58.95
2018-12-27T10:16:34.283Z,59.19
2018-12-27T10:19:36.508Z,58.94
2018-12-27T10:22:38.582Z,58.97
2018-12-27T10:25:40.522Z,58.79
2018-12-27T10:28:42.759Z,58.63
2018-12-27T10:31:44.811Z,58.28
2018-12-27T10:34:46.779Z,58.24
2018-12-27T10:37:48.771Z,58.01
2018-12-27T10:40:50.812Z,57.92
2018-12-27T10:43:52.806Z,57.80
2018-12-27T10:46:54.780Z,57.69
2018-12-27T10:49:56.751Z,57.66
2018-12-27T10:52:58.737Z,57.58
2018-12-27T10:56:00.624Z,57.78
2018-12-27T10:59:02.633Z,57.71
2018-12-27T11:02:05.312Z,57.62
2018-12-27T11:05:07.369Z,57.32
2018-12-27T11:08:09.341Z,57.27
2018-12-27T11:11:11.263Z,57.05
2018-12-27T11:14:13.203Z,56.88
2018-12-27T11:17:15.225Z,56.71
2018-12-27T11:20:17.628Z,56.41
2018-12-27T11:23:19.671Z,56.23
2018-12-27T11:26:21.721Z,55.88
2018-12-27T11:29:25.317Z,55.47
2018-12-27T11:32:27.430Z,55.23
2018-12-27T11:35:29.425Z,55.04
2018-12-27T11:38:31.477Z,54.76
2018-12-27T11:41:33.525Z,54.77
2018-12-27T11:44:35.452Z,54.66
2018-12-27T11:47:37.464Z,54.32
2018-12-27T11:50:39.390Z,54.13
2018-12-27T11:53:41.321Z,54.10
2018-12-27T11:56:43.297Z,53.84
2018-12-27T11:59:45.411Z,53.87
2018-12-27T12:02:47.340Z,53.59
2018-12-27T12:05:49.303Z,53.36
2018-12-27T12:08:51.247Z,52.36
2018-12-27T12:11:53.115Z,52.35
2018-12-27T12:14:55.662Z,52.25
2018-12-27T12:17:57.524Z,52.12
2018-12-27T12:21:00.209Z,52.26
2018-12-27T12:24:02.230Z,52.02
2018-12-27T12:27:06.219Z,52.26
2018-12-27T12:30:09.488Z,52.76
2018-12-27T12:33:11.412Z,53.08
2018-12-27T12:36:13.329Z,53.45
2018-12-27T12:39:15.255Z,53.46
2018-12-27T12:42:17.449Z,53.28
2018-12-27T12:45:20.379Z,53.30
2018-12-27T12:48:22.445Z,53.26
2018-12-27T12:51:24.390Z,53.22
2018-12-27T12:54:28.244Z,53.17
2018-12-27T12:57:31.020Z,53.29
2018-12-27T13:00:35.319Z,53.31
2018-12-27T13:03:37.383Z,53.44
2018-12-27T13:06:39.350Z,53.64
2018-12-27T13:09:41.460Z,53.80
2018-12-27T13:12:43.391Z,53.78
2018-12-27T13:15:45.643Z,53.54
2018-12-27T13:18:47.851Z,52.94
2018-12-27T13:21:49.899Z,52.73
2018-12-27T13:24:51.821Z,52.44
2018-12-27T13:27:53.759Z,52.17
2018-12-27T13:30:55.711Z,52.13
2018-12-27T13:33:58.723Z,52.38
2018-12-27T13:37:00.708Z,52.69
2018-12-27T13:40:02.792Z,52.75
2018-12-27T13:43:05.035Z,52.62
2018-12-27T13:46:07.166Z,52.79
2018-12-27T13:49:09.288Z,52.88
2018-12-27T13:52:11.308Z,53.21
2018-12-27T13:55:13.340Z,53.36
2018-12-27T13:58:15.272Z,53.61
2018-12-27T14:01:17.253Z,54.19
2018-12-27T14:04:19.253Z,54.65
2018-12-27T14:07:21.204Z,55.18
2018-12-27T14:10:23.276Z,55.43
2018-12-27T14:13:25.209Z,55.35
2018-12-27T14:16:27.237Z,55.23
2018-12-27T14:19:29.257Z,54.97
2018-12-27T14:22:31.285Z,54.84
2018-12-27T14:25:33.291Z,54.67
2018-12-27T14:28:35.210Z,54.60
2018-12-27T14:31:37.266Z,54.68
2018-12-27T14:34:39.236Z,54.66
2018-12-27T14:37:41.210Z,54.58
2018-12-27T14:40:43.158Z,54.74
2018-12-27T14:43:45.140Z,54.77
2018-12-27T14:46:47.108Z,54.79
2018-12-27T14:49:49.114Z,54.82
2018-12-27T14:52:51.167Z,54.85
2018-12-27T14:55:53.190Z,54.91
2018-12-27T14:58:55.127Z,54.93
2018-12-27T15:01:57.089Z,54.92
2018-12-27T15:04:59.152Z,55.19
2018-12-27T15:08:01.633Z,55.33
2018-12-27T15:11:03.693Z,55.39
2018-12-27T15:14:05.796Z,55.44
2018-12-27T15:17:07.771Z,55.80
2018-12-27T15:20:10.016Z,56.11
2018-12-27T15:23:11.953Z,56.27
2018-12-27T15:26:13.977Z,56.49
2018-12-27T15:29:16.100Z,56.75
2018-12-27T15:32:18.360Z,56.85
2018-12-27T15:35:20.383Z,56.81
2018-12-27T15:38:22.511Z,56.78
2018-12-27T15:41:24.492Z,56.69
2018-12-27T15:44:26.535Z,56.88
2018-12-27T15:47:28.560Z,56.94
2018-12-27T15:50:30.537Z,57.18
2018-12-27T15:53:32.471Z,57.57
2018-12-27T15:56:34.678Z,57.98
2018-12-27T15:59:36.729Z,58.23
2018-12-27T16:02:38.838Z,58.23
2018-12-27T16:05:40.768Z,58.26
2018-12-27T16:08:42.795Z,58.16
2018-12-27T16:11:44.845Z,58.27
2018-12-27T16:14:46.958Z,58.31
2018-12-27T16:17:49.051Z,58.35
2018-12-27T16:20:51.109Z,58.30
2018-12-27T16:23:53.088Z,58.44
2018-12-27T16:26:55.040Z,58.44
2018-12-27T16:29:56.988Z,58.51
2018-12-27T16:32:59.028Z,58.61
2018-12-27T16:36:01.221Z,58.79
2018-12-27T16:39:05.228Z,58.84
2018-12-27T16:42:07.186Z,58.81
2018-12-27T16:45:09.138Z,58.71
2018-12-27T16:48:11.061Z,58.62
2018-12-27T16:51:13.076Z,58.47
2018-12-27T16:54:15.083Z,58.36
2018-12-27T16:57:19.790Z,58.42
2018-12-27T17:00:20.986Z,58.38
2018-12-27T17:03:22.941Z,58.36
2018-12-27T17:06:26.094Z,58.30
2018-12-27T17:09:28.272Z,58.35
2018-12-27T17:12:30.247Z,58.41
2018-12-27T17:15:32.294Z,58.61
2018-12-27T17:18:34.725Z,58.59
2018-12-27T17:21:36.680Z,58.65
2018-12-27T17:24:38.748Z,58.56
2018-12-27T17:27:40.616Z,58.43
2018-12-27T17:30:42.699Z,58.43
2018-12-27T17:33:44.697Z,58.60
2018-12-27T17:36:46.831Z,58.66
2018-12-27T17:39:49.043Z,58.86
2018-12-27T17:42:51.017Z,59.08
2018-12-27T17:45:52.992Z,59.11
2018-12-27T17:48:55.086Z,59.13
2018-12-27T17:51:57.173Z,59.14
2018-12-27T17:54:59.181Z,59.04
2018-12-27T17:58:01.221Z,59.02
2018-12-27T18:01:03.443Z,59.01
2018-12-27T18:04:05.482Z,58.94
2018-12-27T18:07:07.426Z,58.93
2018-12-27T18:10:09.413Z,58.88
2018-12-27T18:13:11.358Z,58.78
2018-12-27T18:16:13.422Z,58.59
2018-12-27T18:19:15.489Z,58.64
2018-12-27T18:22:17.494Z,58.62
2018-12-27T18:25:19.637Z,58.78
2018-12-27T18:28:21.749Z,58.89
2018-12-27T18:31:23.730Z,58.98
2018-12-27T18:34:25.729Z,59.04
2018-12-27T18:37:27.831Z,59.14
2018-12-27T18:40:29.873Z,59.33
2018-12-27T18:43:32.398Z,59.22
2018-12-27T18:46:34.463Z,59.14
2018-12-27T18:49:36.438Z,59.23
2018-12-27T18:52:38.391Z,59.16
2018-12-27T18:55:40.789Z,59.25
2018-12-27T18:58:43.937Z,59.42
2018-12-27T19:01:46.027Z,59.58
2018-12-27T19:04:49.850Z,59.66
2018-12-27T19:07:52.030Z,59.52
2018-12-27T19:11:31.519Z,59.42
2018-12-27T19:14:33.653Z,59.28
2018-12-27T19:17:38.964Z,59.48
2018-12-27T19:20:43.013Z,59.48
2018-12-27T19:23:45.145Z,59.53
2018-12-27T19:26:48.663Z,59.49
2018-12-27T19:29:51.046Z,59.49
2018-12-27T19:32:53.111Z,59.48
2018-12-27T19:35:55.185Z,59.55
2018-12-27T19:38:57.229Z,59.59
2018-12-27T19:41:59.293Z,59.44
2018-12-27T19:45:02.600Z,59.42
2018-12-27T19:48:06.401Z,59.40
2018-12-27T19:51:08.432Z,59.42
2018-12-27T19:54:10.404Z,59.38
2018-12-27T19:57:14.194Z,59.15
2018-12-27T20:00:18.000Z,59.22
2018-12-27T20:03:21.964Z,59.26
2018-12-27T20:06:24.175Z,59.39
2018-12-27T20:09:27.618Z,59.40
2018-12-27T20:12:29.587Z,59.31
2018-12-27T20:15:32.695Z,59.19
2018-12-27T20:18:35.000Z,59.01
2018-12-27T20:21:37.443Z,59.01
2018-12-27T20:24:39.888Z,59.12
2018-12-27T20:27:41.850Z,59.29
2018-12-27T20:30:43.773Z,59.23
2018-12-27T20:33:46.069Z,59.20
2018-12-27T20:36:49.170Z,59.38
2018-12-27T20:39:52.813Z,59.60
2018-12-27T20:42:54.752Z,59.55
2018-12-27T20:45:56.802Z,59.57
2018-12-27T20:48:59.947Z,59.39
2018-12-27T20:52:04.406Z,59.46
2018-12-27T20:55:06.851Z,59.44
2018-12-27T20:58:10.242Z,59.34
2018-12-27T21:01:12.149Z,59.45
2018-12-27T21:04:14.139Z,59.46
2018-12-27T21:07:16.856Z,59.50
2018-12-27T21:10:18.854Z,59.58
2018-12-27T21:13:23.163Z,59.60
2018-12-27T21:16:26.500Z,59.62
2018-12-27T21:19:28.503Z,59.69
2018-12-27T21:22:32.711Z,59.67
2018-12-27T21:25:36.795Z,59.61
2018-12-27T21:28:38.787Z,59.71
2018-12-27T21:31:41.871Z,59.67
2018-12-27T21:34:43.853Z,59.75
2018-12-27T21:37:45.748Z,59.72
2018-12-27T21:40:47.735Z,59.82
2018-12-27T21:43:49.958Z,59.98
2018-12-27T21:46:51.953Z,60.08
2018-12-27T21:49:53.908Z,60.00
2018-12-27T21:52:55.918Z,59.88
2018-12-27T21:55:57.938Z,59.87
2018-12-27T21:58:59.958Z,59.78
2018-12-27T22:02:01.915Z,59.73
2018-12-27T22:05:04.011Z,59.66
2018-12-27T22:08:06.595Z,59.45
2018-12-27T22:11:09.032Z,59.40
2018-12-27T22:14:10.991Z,59.23
2018-12-27T22:17:12.958Z,59.16
2018-12-27T22:20:15.067Z,59.05
2018-12-27T22:23:16.999Z,58.98
2018-12-27T22:26:19.121Z,58.89
2018-12-27T22:29:21.060Z,58.77
2018-12-27T22:32:23.083Z,58.69
2018-12-27T22:35:25.050Z,58.65
2018-12-27T22:38:27.078Z,58.59
2018-12-27T22:41:29.002Z,58.45
2018-12-27T22:44:30.942Z,58.57
2018-12-27T22:47:32.951Z,58.60
2018-12-27T22:50:34.905Z,58.52
2018-12-27T22:53:36.875Z,58.40
2018-12-27T22:56:38.853Z,58.43
2018-12-27T22:59:40.847Z,58.40
2018-12-27T23:02:42.757Z,58.33
2018-12-27T23:05:44.763Z,58.29
2018-12-27T23:08:46.766Z,58.26
2018-12-27T23:11:49.314Z,58.10
2018-12-27T23:14:51.303Z,58.06
2018-12-27T23:17:53.208Z,58.09
2018-12-27T23:20:55.175Z,58.25
2018-12-27T23:23:57.822Z,58.33
2018-12-27T23:27:00.732Z,58.34
2018-12-27T23:30:04.611Z,58.29
2018-12-27T23:33:06.624Z,58.21
2018-12-27T23:36:08.612Z,58.18
2018-12-27T23:39:10.806Z,58.02
2018-12-27T23:42:12.927Z,57.88
2018-12-27T23:45:15.195Z,57.70
2018-12-27T23:48:17.259Z,57.60
2018-12-27T23:51:19.258Z,57.41
2018-12-27T23:54:21.261Z,57.32
2018-12-27T23:57:23.219Z,57.23
